Time,TemperatureF,DewpointF,PressureIn,WindDirection,WindDirectionDegrees,WindSpeedMPH,WindSpeedGustMPH,Humidity,HourlyPrecipIn,Conditions,Clouds,dailyrainin,SoftwareType,DateUTC
2013-07-03 00:04:00,70.5,70.0,30.11,ESE,119,0.0,1.0,97,0.00,,,0.00,weatherlink.com 1.10,2013-07-03 04:04:00,
2013-07-03 00:19:00,70.6,70.0,30.11,ESE,119,0.0,2.0,98,0.00,,,0.00,weatherlink.com 1.10,2013-07-03 04:19:00,
2013-07-03 00:34:00,70.6,70.0,30.10,ESE,119,1.0,1.0,98,0.00,,,0.00,weatherlink.com 1.10,2013-07-03 04:34:00,
2013-07-03 00:49:00,70.6,70.0,30.10,ESE,119,0.0,1.0,98,0.00,,,0.00,weatherlink.com 1.10,2013-07-03 04:49:00,
2013-07-03 01:04:00,71.2,70.0,30.10,ESE,117,1.0,3.0,96,0.00,,,0.00,weatherlink.com 1.10,2013-07-03 05:04:00,
2013-07-03 01:19:00,71.6,70.0,30.11,ESE,117,0.0,3.0,95,0.00,,,0.00,weatherlink.com 1.10,2013-07-03 05:19:00,
2013-07-03 01:34:00,71.5,70.0,30.11,ESE,117,0.0,1.0,95,0.00,,,0.00,weatherlink.com 1.10,2013-07-03 05:34:00,
2013-07-03 01:49:00,70.8,70.0,30.11,ESE,117,1.0,2.0,96,0.00,,,0.00,weatherlink.com 1.10,2013-07-03 05:49:00,
2013-07-03 02:04:00,70.6,70.0,30.11,ESE,117,1.0,2.0,97,0.00,,,0.00,weatherlink.com 1.10,2013-07-03 06:04:00,
2013-07-03 02:19:00,70.8,70.0,30.11,SE,125,1.0,3.0,97,0.00,,,0.00,weatherlink.com 1.10,2013-07-03 06:19:00,
2013-07-03 02:34:00,71.1,70.0,30.11,NE,51,0.0,2.0,97,0.00,,,0.00,weatherlink.com 1.10,2013-07-03 06:34:00,
2013-07-03 02:49:00,71.3,70.0,30.11,East,89,1.0,2.0,96,0.00,,,0.00,weatherlink.com 1.10,2013-07-03 06:49:00,
2013-07-03 03:04:00,71.2,70.0,30.11,ESE,115,2.0,3.0,96,0.00,,,0.00,weatherlink.com 1.10,2013-07-03 07:04:00,
2013-07-03 03:19:00,71.4,70.0,30.11,ESE,113,1.0,4.0,95,0.00,,,0.00,weatherlink.com 1.10,2013-07-03 07:19:00,
2013-07-03 03:34:00,71.6,70.0,30.11,ESE,123,2.0,3.0,95,0.00,,,0.00,weatherlink.com 1.10,2013-07-03 07:34:00,
2013-07-03 03:49:00,71.6,70.0,30.12,SE,126,2.0,3.0,95,0.00,,,0.00,weatherlink.com 1.10,2013-07-03 07:49:00,
2013-07-03 04:04:00,71.6,70.0,30.12,ESE,123,3.0,4.0,95,0.00,,,0.00,weatherlink.com 1.10,2013-07-03 08:04:00,
2013-07-03 04:19:00,71.6,70.0,30.12,ESE,117,2.0,4.0,94,0.00,,,0.00,weatherlink.com 1.10,2013-07-03 08:19:00,
2013-07-03 04:34:00,71.7,70.0,30.12,SE,127,0.0,4.0,94,0.00,,,0.00,weatherlink.com 1.10,2013-07-03 08:34:00,
2013-07-03 04:49:00,71.5,70.0,30.12,SE,127,0.0,3.0,94,0.00,,,0.00,weatherlink.com 1.10,2013-07-03 08:49:00,
2013-07-03 05:04:00,71.3,70.0,30.12,SE,127,0.0,2.0,95,0.00,,,0.00,weatherlink.com 1.10,2013-07-03 09:04:00,
2013-07-03 05:35:00,70.8,69.0,30.13,SE,127,0.0,1.0,95,0.00,,,0.00,weatherlink.com 1.10,2013-07-03 09:35:00,
2013-07-03 05:50:00,70.9,70.0,30.14,East,99,2.0,5.0,95,0.00,,,0.00,weatherlink.com 1.10,2013-07-03 09:50:00,
2013-07-03 06:05:00,71.3,70.0,30.14,SSE,157,1.0,3.0,94,0.00,,,0.00,weatherlink.com 1.10,2013-07-03 10:05:00,
2013-07-03 06:20:00,71.4,70.0,30.14,SE,138,0.0,4.0,94,0.00,,,0.00,weatherlink.com 1.10,2013-07-03 10:20:00,
2013-07-03 06:35:00,71.4,70.0,30.15,SE,126,0.0,3.0,94,0.00,,,0.00,weatherlink.com 1.10,2013-07-03 10:35:00,
2013-07-03 07:05:00,71.4,70.0,30.16,SE,124,1.0,3.0,94,0.00,,,0.00,weatherlink.com 1.10,2013-07-03 11:05:00,
2013-07-03 07:20:00,71.5,69.0,30.16,SE,124,1.0,3.0,93,0.00,,,0.00,weatherlink.com 1.10,2013-07-03 11:20:00,
2013-07-03 07:35:00,71.5,69.0,30.16,ESE,123,0.0,0.0,93,0.00,,,0.00,weatherlink.com 1.10,2013-07-03 11:35:00,
2013-07-03 07:50:00,71.5,69.0,30.17,ESE,123,0.0,3.0,93,0.00,,,0.00,weatherlink.com 1.10,2013-07-03 11:50:00,
2013-07-03 08:05:00,71.6,70.0,30.17,ESE,123,1.0,3.0,93,0.00,,,0.00,weatherlink.com 1.10,2013-07-03 12:05:00,
2013-07-03 08:20:00,71.8,69.0,30.17,SE,133,2.0,5.0,92,0.00,,,0.00,weatherlink.com 1.10,2013-07-03 12:20:00,
2013-07-03 08:50:00,72.7,70.0,30.17,SE,142,0.0,2.0,91,0.00,,,0.00,weatherlink.com 1.10,2013-07-03 12:50:00,
2013-07-03 09:06:00,73.0,70.0,30.18,SE,138,0.0,3.0,91,0.00,,,0.00,weatherlink.com 1.10,2013-07-03 13:06:00,
2013-07-03 09:20:00,73.5,71.0,30.18,SE,134,0.0,3.0,90,0.00,,,0.00,weatherlink.com 1.10,2013-07-03 13:20:00,
2013-07-03 09:35:00,74.1,71.0,30.18,ESE,114,0.0,3.0,90,0.00,,,0.00,weatherlink.com 1.10,2013-07-03 13:35:00,
2013-07-03 09:50:00,74.7,71.0,30.18,ESE,115,1.0,2.0,88,0.00,,,0.00,weatherlink.com 1.10,2013-07-03 13:50:00,
2013-07-03 10:35:00,76.6,72.0,30.18,South,179,0.0,4.0,85,0.00,,,0.00,weatherlink.com 1.10,2013-07-03 14:35:00,
2013-07-03 10:50:00,77.1,71.0,30.18,SSE,152,0.0,1.0,82,0.00,,,0.00,weatherlink.com 1.10,2013-07-03 14:50:00,
2013-07-03 11:05:00,78.1,72.0,30.18,SSE,152,0.0,2.0,82,0.00,,,0.00,weatherlink.com 1.10,2013-07-03 15:05:00,
2013-07-03 11:35:00,79.4,73.0,30.17,SE,142,0.0,2.0,80,0.00,,,0.00,weatherlink.com 1.10,2013-07-03 15:35:00,
2013-07-03 11:50:00,79.6,73.0,30.17,West,259,0.0,2.0,80,0.00,,,0.00,weatherlink.com 1.10,2013-07-03 15:50:00,
2013-07-03 12:05:00,79.2,73.0,30.17,West,263,0.0,4.0,81,0.00,,,0.00,weatherlink.com 1.10,2013-07-03 16:05:00,
2013-07-03 12:20:00,80.2,72.0,30.17,SW,221,2.0,6.0,76,0.00,,,0.00,weatherlink.com 1.10,2013-07-03 16:20:00,
2013-07-03 12:35:00,80.3,72.0,30.16,West,278,0.0,4.0,76,0.00,,,0.00,weatherlink.com 1.10,2013-07-03 16:35:00,
2013-07-03 13:05:00,82.2,71.0,30.16,West,272,0.0,5.0,68,0.00,,,0.00,weatherlink.com 1.10,2013-07-03 17:05:00,
2013-07-03 13:21:00,81.7,73.0,30.16,West,265,0.0,2.0,74,0.00,,,0.00,weatherlink.com 1.10,2013-07-03 17:21:00,
2013-07-03 13:36:00,82.9,74.0,30.16,West,271,1.0,3.0,74,0.00,,,0.00,weatherlink.com 1.10,2013-07-03 17:36:00,
2013-07-03 13:51:00,83.5,72.0,30.15,WSW,254,1.0,7.0,69,0.00,,,0.00,weatherlink.com 1.10,2013-07-03 17:51:00,
2013-07-03 14:06:00,84.7,72.0,30.15,South,190,1.0,4.0,65,0.00,,,0.00,weatherlink.com 1.10,2013-07-03 18:06:00,
2013-07-03 14:21:00,85.1,72.0,30.14,WSW,249,2.0,3.0,66,0.00,,,0.00,weatherlink.com 1.10,2013-07-03 18:21:00,
2013-07-03 14:36:00,84.6,74.0,30.14,SSW,200,3.0,7.0,70,0.00,,,0.00,weatherlink.com 1.10,2013-07-03 18:36:00,
2013-07-03 14:51:00,85.5,72.0,30.14,ESE,121,2.0,5.0,65,0.00,,,0.00,weatherlink.com 1.10,2013-07-03 18:51:00,
2013-07-03 15:06:00,85.3,73.0,30.14,West,277,1.0,9.0,66,0.00,,,0.00,weatherlink.com 1.10,2013-07-03 19:06:00,
2013-07-03 15:21:00,85.5,72.0,30.13,NW,304,1.0,6.0,64,0.00,,,0.00,weatherlink.com 1.10,2013-07-03 19:21:00,
2013-07-03 15:36:00,85.0,72.0,30.13,West,266,2.0,6.0,66,0.00,,,0.00,weatherlink.com 1.10,2013-07-03 19:36:00,
2013-07-03 15:51:00,86.4,73.0,30.13,West,270,0.0,2.0,64,0.00,,,0.00,weatherlink.com 1.10,2013-07-03 19:51:00,
2013-07-03 16:06:00,86.1,72.0,30.12,West,263,2.0,5.0,63,0.00,,,0.00,weatherlink.com 1.10,2013-07-03 20:06:00,
2013-07-03 16:21:00,86.1,72.0,30.12,WSW,244,3.0,6.0,62,0.00,,,0.00,weatherlink.com 1.10,2013-07-03 20:21:00,
2013-07-03 16:36:00,86.4,72.0,30.12,West,263,0.0,4.0,62,0.00,,,0.00,weatherlink.com 1.10,2013-07-03 20:36:00,
2013-07-03 16:51:00,86.6,71.0,30.11,West,273,1.0,3.0,60,0.00,,,0.00,weatherlink.com 1.10,2013-07-03 20:51:00,
2013-07-03 17:06:00,86.1,75.0,30.11,West,265,0.0,4.0,69,0.00,,,0.00,weatherlink.com 1.10,2013-07-03 21:06:00,
2013-07-03 17:36:00,87.0,74.0,30.10,South,184,0.0,1.0,65,0.00,,,0.00,weatherlink.com 1.10,2013-07-03 21:36:00,
2013-07-03 17:51:00,86.6,73.0,30.10,South,183,0.0,1.0,64,0.00,,,0.00,weatherlink.com 1.10,2013-07-03 21:51:00,
2013-07-03 18:06:00,85.7,73.0,30.10,SE,132,0.0,3.0,65,0.00,,,0.00,weatherlink.com 1.10,2013-07-03 22:06:00,
2013-07-03 18:21:00,85.1,73.0,30.10,SE,132,0.0,0.0,68,0.00,,,0.00,weatherlink.com 1.10,2013-07-03 22:21:00,
2013-07-03 18:36:00,84.4,76.0,30.11,SE,132,0.0,1.0,75,0.00,,,0.00,weatherlink.com 1.10,2013-07-03 22:36:00,
2013-07-03 18:51:00,82.0,74.0,30.11,SE,132,0.0,1.0,77,0.00,,,0.00,weatherlink.com 1.10,2013-07-03 22:51:00,
2013-07-03 19:21:00,80.5,75.0,30.11,SE,132,0.0,0.0,82,0.00,,,0.00,weatherlink.com 1.10,2013-07-03 23:21:00,
2013-07-03 19:51:00,79.8,73.0,30.12,West,269,0.0,4.0,80,0.00,,,0.00,weatherlink.com 1.10,2013-07-03 23:51:00,
2013-07-03 20:06:00,79.0,74.0,30.12,NNW,348,0.0,1.0,84,0.00,,,0.00,weatherlink.com 1.10,2013-07-04 00:06:00,
2013-07-03 20:36:00,77.0,72.0,30.13,NE,42,0.0,1.0,85,0.00,,,0.00,weatherlink.com 1.10,2013-07-04 00:36:00,
2013-07-03 20:51:00,76.2,72.0,30.13,NE,42,0.0,0.0,86,0.00,,,0.00,weatherlink.com 1.10,2013-07-04 00:51:00,
2013-07-03 21:06:00,75.5,72.0,30.13,NE,42,0.0,2.0,88,0.00,,,0.00,weatherlink.com 1.10,2013-07-04 01:06:00,
2013-07-03 21:21:00,75.1,71.0,30.14,NE,42,0.0,0.0,88,0.00,,,0.00,weatherlink.com 1.10,2013-07-04 01:21:00,
2013-07-03 21:51:00,75.2,71.0,30.15,ESE,108,1.0,3.0,87,0.00,,,0.00,weatherlink.com 1.10,2013-07-04 01:51:00,
2013-07-03 22:06:00,75.2,71.0,30.15,ESE,108,0.0,1.0,87,0.00,,,0.00,weatherlink.com 1.10,2013-07-04 02:06:00,
2013-07-03 22:21:00,74.2,71.0,30.15,ESE,108,0.0,2.0,89,0.00,,,0.00,weatherlink.com 1.10,2013-07-04 02:21:00,
2013-07-03 22:51:00,73.7,70.0,30.15,ESE,108,0.0,2.0,89,0.00,,,0.00,weatherlink.com 1.10,2013-07-04 02:51:00,
2013-07-03 23:21:00,73.6,71.0,30.16,ESE,117,1.0,1.0,90,0.00,,,0.00,weatherlink.com 1.10,2013-07-04 03:21:00,
2013-07-03 23:36:00,73.2,70.0,30.16,ESE,120,0.0,3.0,90,0.00,,,0.00,weatherlink.com 1.10,2013-07-04 03:36:00,
2013-07-03 23:51:00,73.7,70.0,30.16,ESE,120,1.0,2.0,89,0.00,,,0.00,weatherlink.com 1.10,2013-07-04 03:51:00,